Time;durP1;ratioP1;P1;durP2;ratioP2;P2;SDS_P1;SDS_P2;PMS_P1;PMS_P2;Temp;Humidity;BMP_temperature;BMP_pressure;BME280_temperature;BME280_humidity;BME280_pressure;Samples;Min_cycle;Max_cycle;Signal;HPM_P1;HPM_P2
2020/12/02 00:02:15;;;;;;;49.38;26.73;;;;;;;3.80;54.21;101180.05;2509295;78;25875;-83
2020/12/02 00:05:43;;;;;;;47.75;24.07;;;;;;;3.77;54.27;101177.27;2509128;77;25664;-82
2020/12/02 00:09:15;;;;;;;44.58;26.02;;;;;;;3.75;54.32;101180.16;2509035;78;25490;-82
2020/12/02 00:12:37;;;;;;;48.17;25.88;;;;;;;3.72;54.37;101176.98;2508489;78;25577;-77
2020/12/02 00:16:00;;;;;;;47.65;25.77;;;;;;;3.72;54.42;101178.28;2509095;78;25640;-81
2020/12/02 00:19:24;;;;;;;45.88;26.02;;;;;;;3.69;54.45;101172.92;2513024;78;25576;-78
2020/12/02 00:22:46;;;;;;;47.75;26.35;;;;;;;3.69;54.55;101174.61;2517898;78;25700;-76
2020/12/02 00:26:08;;;;;;;45.38;24.92;;;;;;;3.66;54.54;101173.13;2517907;78;25702;-78
2020/12/02 00:29:29;;;;;;;50.00;26.30;;;;;;;3.65;54.60;101170.95;2516935;78;25734;-81
2020/12/02 00:33:00;;;;;;;49.55;26.10;;;;;;;3.63;54.64;101176.80;2512958;77;25652;-78
2020/12/02 00:36:35;;;;;;;43.65;24.82;;;;;;;3.61;54.69;101170.27;2507955;78;25597;-77
2020/12/02 00:39:57;;;;;;;39.85;24.05;;;;;;;3.60;54.74;101177.88;2513350;77;25725;-78
2020/12/02 00:43:24;;;;;;;49.58;27.10;;;;;;;3.59;54.78;101188.59;2516320;78;25562;-77
2020/12/02 00:47:24;;;;;;;45.93;23.80;;;;;;;3.62;54.91;101190.08;2512207;77;34892;-78
2020/12/02 00:50:46;;;;;;;44.77;24.72;;;;;;;3.55;54.86;101189.20;2504206;78;25749;-76
2020/12/02 00:54:19;;;;;;;45.52;25.62;;;;;;;3.52;54.90;101184.73;2387580;81;25621;-77
2020/12/02 00:57:40;;;;;;;43.87;25.50;;;;;;;3.50;54.91;101187.59;2410721;80;25888;-84
2020/12/02 01:01:06;;;;;;;46.42;25.45;;;;;;;3.50;55.00;101181.55;2394892;81;25811;-79
2020/12/02 01:04:28;;;;;;;44.55;25.27;;;;;;;3.47;54.99;101177.08;2394498;81;25811;-83
2020/12/02 01:07:49;;;;;;;46.23;24.82;;;;;;;3.46;55.05;101174.42;2331427;83;25605;-77
2020/12/02 01:11:27;;;;;;;43.40;26.60;;;;;;;3.44;55.06;101179.86;2395041;82;25586;-77
2020/12/02 01:14:49;;;;;;;43.45;25.60;;;;;;;3.42;55.11;101175.02;2423343;80;26876;-77
2020/12/02 01:18:18;;;;;;;43.95;25.27;;;;;;;3.39;55.15;101182.14;2416083;80;25823;-83
2020/12/02 01:21:54;;;;;;;45.80;25.45;;;;;;;3.37;55.19;101175.98;2373858;82;25783;-82
2020/12/02 01:25:23;;;;;;;43.42;24.18;;;;;;;3.35;55.21;101176.30;2394668;82;25894;-78
2020/12/02 01:28:48;;;;;;;44.95;24.37;;;;;;;3.33;55.26;101172.72;2394250;81;25600;-77
2020/12/02 01:32:11;;;;;;;43.80;24.23;;;;;;;3.31;55.30;101173.92;2395820;82;25880;-79
2020/12/02 01:35:32;;;;;;;45.00;25.95;;;;;;;3.29;55.30;101173.32;2353769;83;26297;-82
2020/12/02 01:38:56;;;;;;;42.73;23.90;;;;;;;3.27;55.33;101180.05;2395661;82;25672;-83
2020/12/02 01:42:18;;;;;;;42.75;24.52;;;;;;;3.25;55.34;101178.67;2394642;81;25876;-81
2020/12/02 01:45:44;;;;;;;39.25;24.30;;;;;;;3.23;55.39;101168.65;2370713;82;25504;-80
2020/12/02 01:49:24;;;;;;;46.35;24.87;;;;;;;3.21;55.43;101168.97;2394058;81;25838;-82
2020/12/02 01:52:54;;;;;;;44.45;25.27;;;;;;;3.20;55.46;101159.83;2331228;83;25850;-83
2020/12/02 01:56:32;;;;;;;44.67;25.77;;;;;;;3.17;55.51;101165.66;2394298;81;25456;-78
2020/12/02 02:00:15;;;;;;;44.23;25.10;;;;;;;3.15;55.49;101163.80;2393485;81;25651;-79
2020/12/02 02:03:39;;;;;;;47.20;25.65;;;;;;;3.11;55.53;101161.83;2417061;80;25799;-78
2020/12/02 02:07:06;;;;;;;41.53;23.95;;;;;;;3.08;55.56;101153.09;2424682;80;25562;-81
2020/12/02 02:10:36;;;;;;;49.23;25.02;;;;;;;3.04;55.57;101148.53;2408932;80;25821;-82
2020/12/02 02:14:17;;;;;;;41.60;23.77;;;;;;;3.03;55.59;101151.87;2436636;80;25710;-78
2020/12/02 02:17:39;;;;;;;51.00;26.15;;;;;;;3.00;55.60;101149.13;2382702;82;26667;-77
2020/12/02 02:21:09;;;;;;;38.65;23.02;;;;;;;2.97;55.63;101141.20;2393609;82;25673;-78
2020/12/02 02:24:31;;;;;;;40.98;24.43;;;;;;;2.96;55.64;101144.94;2355474;83;25508;-78
2020/12/02 02:27:55;;;;;;;41.10;23.77;;;;;;;2.93;55.66;101146.91;2339176;83;25720;-82
2020/12/02 02:31:20;;;;;;;42.08;24.07;;;;;;;2.92;55.67;101147.71;2350459;83;25767;-78
2020/12/02 02:34:50;;;;;;;38.42;23.22;;;;;;;2.89;55.67;101156.52;2394476;82;25772;-82
2020/12/02 02:38:12;;;;;;;39.03;24.65;;;;;;;2.87;55.65;101146.53;2399509;80;25499;-81
2020/12/02 02:41:34;;;;;;;38.20;23.02;;;;;;;2.84;55.70;101152.77;2413903;80;25812;-81
2020/12/02 02:44:58;;;;;;;41.18;23.75;;;;;;;2.82;55.73;101143.62;2404008;80;26750;-78
2020/12/02 02:48:19;;;;;;;40.58;23.55;;;;;;;2.80;55.74;101141.73;2413936;80;25808;-77
2020/12/02 02:51:40;;;;;;;38.65;22.77;;;;;;;2.79;55.77;101143.82;2401409;80;25507;-78
2020/12/02 02:55:03;;;;;;;41.92;23.80;;;;;;;2.76;55.77;101138.06;2413716;80;25677;-77
2020/12/02 02:58:27;;;;;;;37.75;22.15;;;;;;;2.75;55.78;101140.55;2422419;80;25903;-77
2020/12/02 03:01:48;;;;;;;38.42;22.98;;;;;;;2.73;55.81;101139.14;2413177;80;25717;-76
2020/12/02 03:05:14;;;;;;;38.25;22.67;;;;;;;2.72;55.80;101141.63;2421830;80;25625;-77
2020/12/02 03:08:36;;;;;;;38.33;20.97;;;;;;;2.68;55.81;101137.95;2420422;80;25865;-76
2020/12/02 03:11:58;;;;;;;41.95;21.12;;;;;;;2.66;55.79;101134.77;2415554;80;25655;-77
2020/12/02 03:15:19;;;;;;;37.25;21.27;;;;;;;2.64;55.83;101138.55;2443928;80;25737;-76
2020/12/02 03:18:42;;;;;;;34.13;20.90;;;;;;;2.62;55.83;101138.83;2407303;80;25811;-80
2020/12/02 03:22:08;;;;;;;32.90;21.90;;;;;;;2.61;55.84;101143.48;2425966;80;25725;-78
2020/12/02 03:25:32;;;;;;;35.43;19.60;;;;;;;2.59;55.85;101142.08;2412007;79;25863;-82
2020/12/02 03:28:54;;;;;;;38.42;20.45;;;;;;;2.57;55.83;101141.10;2402603;80;25766;-76
2020/12/02 03:32:16;;;;;;;32.13;20.95;;;;;;;2.57;55.83;101137.64;2405724;80;25887;-77
2020/12/02 03:35:38;;;;;;;34.53;20.57;;;;;;;2.56;55.83;101139.69;2409091;80;25391;-81
2020/12/02 03:39:00;;;;;;;38.48;20.72;;;;;;;2.56;55.83;101141.87;2425559;80;25607;-77
2020/12/02 03:42:21;;;;;;;32.20;20.10;;;;;;;2.57;55.83;101129.52;2432642;80;25782;-77
2020/12/02 03:45:58;;;;;;;29.60;20.20;;;;;;;2.58;55.83;101139.41;2420010;80;25598;-83
2020/12/02 03:49:20;;;;;;;28.83;18.92;;;;;;;2.56;55.81;101139.69;2389967;81;25759;-78
2020/12/02 03:52:41;;;;;;;32.23;19.15;;;;;;;2.56;55.81;101140.58;2392963;81;25644;-77
2020/12/02 03:56:04;;;;;;;33.02;19.17;;;;;;;2.58;55.76;101132.98;2388561;82;25738;-77
2020/12/02 03:59:25;;;;;;;27.90;18.77;;;;;;;2.56;55.73;101140.98;2368490;82;25741;-77
2020/12/02 04:02:47;;;;;;;28.50;18.05;;;;;;;2.56;55.75;101138.41;2382672;81;25879;-77
2020/12/02 04:06:10;;;;;;;27.42;18.32;;;;;;;2.55;55.68;101139.20;2381737;81;25430;-77
2020/12/02 04:09:32;;;;;;;27.22;18.10;;;;;;;2.55;55.71;101151.67;2388618;82;25765;-77
2020/12/02 04:12:53;;;;;;;29.18;17.42;;;;;;;2.54;55.67;101145.16;2391450;82;25812;-77
2020/12/02 04:16:16;;;;;;;26.70;17.40;;;;;;;2.53;55.64;101153.64;2385272;82;25662;-81
2020/12/02 04:19:38;;;;;;;23.98;16.67;;;;;;;2.52;55.61;101142.86;2382633;81;25784;-78
2020/12/02 04:22:59;;;;;;;28.27;17.95;;;;;;;2.51;55.58;101161.27;2392679;81;25437;-77
2020/12/02 04:26:22;;;;;;;30.15;18.60;;;;;;;2.48;55.56;101140.47;2225362;87;25817;-83
2020/12/02 04:29:58;;;;;;;26.30;17.55;;;;;;;2.46;55.50;101144.61;2259933;86;25817;-77
2020/12/02 04:33:20;;;;;;;27.55;18.07;;;;;;;2.45;55.51;101146.69;2268711;86;26723;-77
2020/12/02 04:37:00;;;;;;;;;;;;;;;;;;;;;
2020/12/02 04:40:43;;;;;;;29.37;16.73;;;;;;;2.50;55.50;101139.30;2556946;77;34730;-78
2020/12/02 04:44:05;;;;;;;25.23;17.30;;;;;;;2.44;55.47;101146.20;2518437;78;25632;-77
2020/12/02 04:47:35;;;;;;;22.35;16.35;;;;;;;2.46;55.44;101154.02;2518198;77;25666;-79
2020/12/02 04:51:05;;;;;;;25.10;16.87;;;;;;;2.44;55.42;101148.78;2518327;78;25643;-82
2020/12/02 04:54:27;;;;;;;23.38;16.48;;;;;;;2.43;55.39;101139.65;2516956;78;26178;-78
2020/12/02 04:57:48;;;;;;;25.65;16.82;;;;;;;2.43;55.37;101137.07;2518136;78;25635;-77
2020/12/02 05:01:32;;;;;;;25.12;16.80;;;;;;;2.43;55.35;101135.42;2518307;77;25862;-82
2020/12/02 05:05:00;;;;;;;25.48;16.30;;;;;;;2.43;55.33;101133.21;2301650;85;25774;-80
2020/12/02 05:08:30;;;;;;;24.75;15.95;;;;;;;2.42;55.32;101134.02;2301714;86;25397;-78
2020/12/02 05:12:03;;;;;;;21.97;16.15;;;;;;;2.41;55.30;101138.27;2301574;86;25911;-78
2020/12/02 05:15:29;;;;;;;23.45;15.63;;;;;;;2.41;55.27;101133.52;2300900;86;25714;-78
2020/12/02 05:19:04;;;;;;;26.30;16.67;;;;;;;2.40;55.25;101127.48;2301639;86;25654;-77
2020/12/02 05:22:25;;;;;;;26.12;16.77;;;;;;;2.41;55.24;101134.81;2395610;78;25614;-77
2020/12/02 05:25:47;;;;;;;22.95;15.15;;;;;;;2.40;55.24;101139.07;2518338;78;25616;-78
2020/12/02 05:29:39;;;;;;;22.02;15.72;;;;;;;2.40;55.19;101141.64;2518203;78;25529;-77
2020/12/02 05:33:15;;;;;;;19.17;13.95;;;;;;;2.41;55.18;101141.24;2517014;78;25591;-78
2020/12/02 05:36:42;;;;;;;25.12;17.17;;;;;;;2.40;55.17;101140.36;2518190;78;25648;-78
2020/12/02 05:40:11;;;;;;;20.85;14.47;;;;;;;2.41;55.15;101156.28;2486781;78;25709;-79
2020/12/02 05:43:45;;;;;;;;;;;;;;;2.41;55.17;101130.55;2489052;78;25676;-80
2020/12/02 05:47:14;;;;;;;18.70;14.20;;;;;;;2.41;55.17;101139.56;2518193;78;26504;-82
2020/12/02 05:50:35;;;;;;;22.67;14.47;;;;;;;2.41;55.18;101125.80;2517078;78;25619;-79
2020/12/02 05:54:02;;;;;;;18.05;14.07;;;;;;;2.41;55.18;101140.84;2517582;78;25752;-76
2020/12/02 05:57:23;;;;;;;22.10;13.95;;;;;;;2.41;55.18;101142.13;2517438;78;25699;-76
2020/12/02 06:00:45;;;;;;;19.00;15.03;;;;;;;2.42;55.17;101146.88;2517548;78;25586;-77
2020/12/02 06:04:12;;;;;;;22.82;14.60;;;;;;;2.43;55.18;101157.66;2514778;78;25986;-78
2020/12/02 06:07:48;;;;;;;20.97;15.23;;;;;;;2.43;55.17;101161.52;2485815;77;25755;-77
2020/12/02 06:11:26;;;;;;;24.07;16.63;;;;;;;2.49;55.18;101162.84;2591992;76;35005;-77
2020/12/02 06:14:50;;;;;;;23.50;15.80;;;;;;;2.45;55.15;101159.95;2502969;77;25521;-77
2020/12/02 06:18:23;;;;;;;22.15;15.18;;;;;;;2.42;55.15;101155.48;2509080;78;25753;-77
2020/12/02 06:22:00;;;;;;;23.85;15.32;;;;;;;2.42;55.11;101153.31;2464616;79;25738;-76
2020/12/02 06:25:52;;;;;;;20.68;15.28;;;;;;;2.41;55.10;101153.71;2465303;80;25577;-77
2020/12/02 06:29:27;;;;;;;20.12;14.23;;;;;;;2.40;55.07;101158.73;2465209;80;25581;-81
2020/12/02 06:33:17;;;;;;;22.75;15.03;;;;;;;2.39;55.06;101172.40;2465421;80;26073;-77
2020/12/02 06:37:29;;;;;;;20.43;14.00;;;;;;;2.39;55.06;101168.54;2460174;79;25801;-83
2020/12/02 06:41:24;;;;;;;18.50;14.33;;;;;;;2.38;55.04;101161.62;2439598;80;26003;-77
2020/12/02 06:45:25;;;;;;;17.75;14.25;;;;;;;2.39;55.02;101168.54;2508440;78;25609;-77
2020/12/02 06:48:49;;;;;;;17.35;14.23;;;;;;;2.39;55.01;101173.69;2465354;79;25711;-78
2020/12/02 06:52:28;;;;;;;20.60;14.75;;;;;;;2.39;55.00;101170.71;2464663;80;25719;-83
2020/12/02 06:55:57;;;;;;;19.48;14.10;;;;;;;2.41;55.00;101170.84;2463926;80;25658;-77
2020/12/02 06:59:18;;;;;;;19.85;14.45;;;;;;;2.41;54.99;101166.98;2465195;80;25625;-77
2020/12/02 07:02:57;;;;;;;17.20;13.75;;;;;;;2.42;54.97;101172.61;2465415;80;25509;-78
2020/12/02 07:06:25;;;;;;;16.27;13.58;;;;;;;2.44;54.99;101168.08;2460580;80;25657;-79
2020/12/02 07:10:35;;;;;;;18.00;14.85;;;;;;;2.45;54.98;101163.42;2464059;80;25989;-78
2020/12/02 07:14:15;;;;;;;22.27;15.95;;;;;;;2.48;54.98;101167.89;2496931;79;25663;-78
2020/12/02 07:17:36;;;;;;;;;;;;;;;2.49;54.99;101173.53;2508914;79;25572;-77
2020/12/02 07:30:31;;;;;;;17.67;14.00;;;;;;;2.52;54.99;101175.03;2355175;83;26079;-77
2020/12/02 07:34:01;;;;;;;17.00;13.78;;;;;;;2.55;54.98;101174.84;2485080;79;25705;-78
2020/12/02 07:38:03;;;;;;;18.70;14.78;;;;;;;2.59;54.98;101173.37;2443282;79;25594;-78
2020/12/02 07:42:01;;;;;;;19.40;13.90;;;;;;;2.61;54.98;101173.09;2475594;79;25750;-77
2020/12/02 07:45:29;;;;;;;20.65;15.13;;;;;;;2.64;54.96;101176.28;2471157;78;26120;-82
2020/12/02 07:53:41;;;;;;;18.25;14.35;;;;;;;2.68;54.93;101175.69;2527582;77;25658;-77
2020/12/02 08:01:39;;;;;;;15.50;13.55;;;;;;;2.72;54.89;101177.67;2410415;79;25757;-82
2020/12/02 08:05:05;;;;;;;19.95;16.20;;;;;;;2.74;54.86;101175.70;2354022;82;25670;-81
2020/12/02 08:08:45;;;;;;;18.85;14.43;;;;;;;2.78;54.87;101180.67;2363345;80;26011;-78
2020/12/02 08:12:35;;;;;;;23.65;15.30;;;;;;;2.79;54.86;101172.14;2394395;81;25584;-80
2020/12/02 08:16:00;;;;;;;20.57;15.08;;;;;;;2.82;54.84;101177.10;2323553;82;25766;-78
2020/12/02 08:19:32;;;;;;;19.12;15.38;;;;;;;2.83;54.78;101175.05;2396811;80;25696;-79
2020/12/02 08:22:57;;;;;;;19.92;15.38;;;;;;;2.86;54.77;101185.92;2350336;82;25710;-80
2020/12/02 08:30:44;;;;;;;17.17;14.40;;;;;;;2.88;54.71;101175.34;2242469;85;25777;-85
2020/12/02 08:45:15;;;;;;;17.97;14.90;;;;;;;2.98;54.61;101189.33;2587599;75;34697;-79
2020/12/02 08:48:39;;;;;;;22.27;15.43;;;;;;;2.94;54.59;101187.75;2503210;79;26090;-80
2020/12/02 08:52:01;;;;;;;20.48;16.27;;;;;;;2.95;54.58;101180.52;2433338;81;25940;-80
2020/12/02 08:55:26;;;;;;;17.73;14.80;;;;;;;2.97;54.56;101186.64;2500303;79;25411;-79
2020/12/02 08:58:51;;;;;;;20.77;15.80;;;;;;;2.97;54.49;101181.48;2445795;80;25633;-79
2020/12/02 09:06:12;;;;;;;21.70;15.13;;;;;;;3.00;54.41;101168.45;2254524;84;25756;-81
2020/12/02 09:09:42;;;;;;;18.02;14.87;;;;;;;3.01;54.39;101167.65;2229212;86;25966;-78
2020/12/02 09:17:20;;;;;;;20.65;15.43;;;;;;;3.05;54.31;101158.03;2278332;83;25778;-79
2020/12/02 09:21:09;;;;;;;24.15;16.45;;;;;;;3.08;54.29;101167.26;2289022;83;26089;-81
2020/12/02 09:24:31;;;;;;;20.37;14.47;;;;;;;3.09;54.29;101150.11;2283674;85;25931;-78
2020/12/02 09:27:52;;;;;;;16.52;14.45;;;;;;;3.13;54.23;101146.05;2299708;84;25758;-80
2020/12/02 09:31:15;;;;;;;17.35;14.85;;;;;;;3.14;54.20;101138.44;2295510;84;26348;-78
2020/12/02 09:34:39;;;;;;;18.02;14.43;;;;;;;3.17;54.17;101132.17;2299279;84;26198;-78
2020/12/02 09:38:01;;;;;;;21.27;15.80;;;;;;;3.19;54.17;101134.86;2299700;83;25827;-79
2020/12/02 09:41:56;;;;;;;15.63;13.70;;;;;;;3.21;54.16;101132.89;2298567;84;25898;-82
2020/12/02 09:49:56;;;;;;;15.60;13.90;;;;;;;3.23;54.04;101117.11;2298059;84;25519;-77
2020/12/02 09:53:30;;;;;;;17.48;13.78;;;;;;;3.24;54.03;101111.55;2268370;84;25700;-79
2020/12/02 09:56:55;;;;;;;18.40;14.38;;;;;;;3.25;53.92;101101.77;2259569;86;25364;-78
2020/12/02 10:00:21;;;;;;;16.73;13.98;;;;;;;3.26;53.92;101109.98;2259783;86;25698;-78
2020/12/02 10:04:07;;;;;;;19.70;14.68;;;;;;;3.28;53.86;101092.95;2268092;84;26163;-77
2020/12/02 10:07:42;;;;;;;17.42;14.03;;;;;;;3.28;53.78;101100.68;2321614;84;25853;-77
2020/12/02 10:11:30;;;;;;;21.73;15.00;;;;;;;3.34;53.74;101081.71;2592994;76;25641;-78
2020/12/02 10:15:12;;;;;;;17.75;14.15;;;;;;;3.30;53.67;101084.49;2561459;77;25627;-80
2020/12/02 10:19:15;;;;;;;18.05;13.88;;;;;;;3.30;53.59;101071.61;2463342;80;25662;-78
2020/12/02 10:23:27;;;;;;;21.65;14.40;;;;;;;3.30;53.53;101062.98;2469513;78;26149;-80
2020/12/02 10:27:24;;;;;;;21.87;13.85;;;;;;;3.31;53.44;101056.66;2419075;80;25755;-78
2020/12/02 10:31:39;;;;;;;14.93;13.35;;;;;;;3.34;53.40;101061.09;2267971;85;26497;-79
2020/12/02 10:35:01;;;;;;;19.73;14.58;;;;;;;3.37;53.29;101051.39;2312865;84;25927;-79
2020/12/02 10:38:39;;;;;;;18.55;14.45;;;;;;;3.38;53.22;101061.81;2317262;84;26294;-81
2020/12/02 10:42:41;;;;;;;18.90;13.70;;;;;;;3.42;53.17;101050.00;2259034;86;25852;-82
2020/12/02 10:51:04;;;;;;;20.35;13.83;;;;;;;3.48;53.09;101040.08;2349413;82;26312;-80
2020/12/02 10:54:47;;;;;;;20.90;17.57;;;;;;;3.55;52.99;101039.67;2546260;76;27849;-81
2020/12/02 10:58:34;;;;;;;18.42;16.02;;;;;;;3.70;52.97;101031.57;2536128;77;26105;-82
2020/12/02 11:01:55;;;;;;;19.27;12.75;;;;;;;3.79;52.73;101037.30;2560881;77;26169;-81
2020/12/02 11:05:17;;;;;;;18.25;14.65;;;;;;;3.84;52.70;101031.13;2560905;76;25732;-81
2020/12/02 11:09:07;;;;;;;15.63;13.48;;;;;;;3.89;52.63;101024.97;2490880;79;25658;-81
2020/12/02 11:12:46;;;;;;;18.30;15.15;;;;;;;3.93;52.59;101021.77;2474413;79;25843;-81
2020/12/02 11:16:16;;;;;;;17.82;13.10;;;;;;;3.93;52.45;101017.50;2482052;78;25596;-81
2020/12/02 11:19:53;;;;;;;16.87;14.05;;;;;;;3.94;52.47;101020.96;2467841;79;25604;-81
2020/12/02 11:23:52;;;;;;;18.17;13.95;;;;;;;3.95;52.40;101018.90;2467242;79;25672;-80
2020/12/02 11:27:16;;;;;;;13.78;12.45;;;;;;;3.95;52.40;101022.77;2460622;79;25778;-80
2020/12/02 11:30:40;;;;;;;15.88;13.85;;;;;;;3.95;52.32;101018.90;2465612;78;25795;-79
2020/12/02 11:34:11;;;;;;;15.28;13.68;;;;;;;3.95;52.32;101005.59;2470771;79;25472;-82
2020/12/02 11:37:47;;;;;;;15.83;12.93;;;;;;;3.97;52.31;101006.56;2456792;80;25573;-79
2020/12/02 11:41:32;;;;;;;21.68;13.72;;;;;;;3.99;52.30;100993.77;2485996;79;25798;-80
2020/12/02 11:45:15;;;;;;;18.07;13.32;;;;;;;4.01;52.27;100998.20;2476032;79;25569;-80
2020/12/02 11:49:17;;;;;;;13.18;11.83;;;;;;;4.04;52.26;100989.75;2438765;80;25761;-82
2020/12/02 11:53:24;;;;;;;16.85;13.18;;;;;;;4.08;52.25;100981.80;2469402;79;25758;-82
2020/12/02 11:57:10;;;;;;;14.80;12.60;;;;;;;4.15;52.28;100984.85;2468612;79;25669;-78
2020/12/02 12:00:32;;;;;;;14.53;12.65;;;;;;;4.25;52.22;100974.64;2506212;77;25606;-79
2020/12/02 12:04:19;;;;;;;17.90;12.93;;;;;;;4.39;52.24;100962.56;2492613;77;25743;-78
2020/12/02 12:08:03;;;;;;;15.28;13.08;;;;;;;4.65;52.14;100967.89;2499718;77;25657;-78
2020/12/02 12:11:32;;;;;;;13.75;11.93;;;;;;;4.75;51.92;100959.86;2497455;78;25615;-78
2020/12/02 12:15:42;;;;;;;16.85;13.22;;;;;;;4.79;51.89;100954.05;2487775;77;25700;-78
2020/12/02 12:19:27;;;;;;;17.02;13.10;;;;;;;4.82;51.80;100946.48;2474487;77;25816;-81
2020/12/02 12:22:57;;;;;;;14.63;12.80;;;;;;;4.88;51.78;100946.83;2478964;77;26065;-79
2020/12/02 12:26:19;;;;;;;14.50;13.00;;;;;;;4.94;51.67;100935.55;2397299;81;26114;-78
2020/12/02 12:29:41;;;;;;;17.07;14.00;;;;;;;5.04;51.63;100931.77;2463091;80;25636;-78
2020/12/02 12:37:41;;;;;;;27.07;21.93;;;;;;;5.61;63.49;100912.82;2427064;80;26037;-80
2020/12/02 12:41:40;;;;;;;27.22;21.37;;;;;;;6.61;65.91;100917.02;2390373;81;25625;-80
2020/12/02 12:45:06;;;;;;;25.15;19.73;;;;;;;6.86;64.19;100917.77;2448738;80;25775;-80
2020/12/02 12:48:33;;;;;;;24.70;19.23;;;;;;;6.80;63.49;100910.99;2442110;79;25656;-79
2020/12/02 12:53:00;;;;;;;23.67;20.62;;;;;;;6.72;63.37;100917.53;2399299;80;26082;-79
2020/12/02 12:56:12;;;;;;;;;;;;;;;;;;;;;
2020/12/02 12:59:38;;;;;;;30.43;19.62;;;;;;;6.48;63.12;100912.06;2444921;79;25690;-79
2020/12/02 13:03:37;;;;;;;24.10;20.48;;;;;;;6.34;62.69;100903.59;2435658;79;26138;-78
2020/12/02 13:16:47;;;;;;;24.77;20.53;;;;;;;5.94;62.07;100907.61;2598575;76;25570;-80
2020/12/02 13:20:32;;;;;;;25.65;21.02;;;;;;;5.73;61.77;100914.73;2525304;77;25674;-79
2020/12/02 13:24:37;;;;;;;29.82;21.15;;;;;;;5.62;61.74;100909.00;2514646;76;26158;-80
2020/12/02 13:28:47;;;;;;;28.73;21.77;;;;;;;5.51;61.62;100905.39;2460466;80;25821;-79
2020/12/02 13:32:34;;;;;;;25.92;22.02;;;;;;;5.38;61.56;100906.44;2420874;80;25814;-80
2020/12/02 13:36:18;;;;;;;28.02;21.68;;;;;;;5.26;61.43;100913.53;2468122;79;25725;-81
2020/12/02 13:39:40;;;;;;;29.37;22.60;;;;;;;5.13;61.26;100894.80;2441731;80;25893;-79
2020/12/02 13:43:34;;;;;;;30.80;23.27;;;;;;;4.91;59.09;100888.87;2410370;81;25773;-80
2020/12/02 13:47:12;;;;;;;40.70;25.92;;;;;;;4.58;58.09;100887.02;2332547;82;25985;-80
2020/12/02 13:51:21;;;;;;;45.83;27.75;;;;;;;4.34;57.80;100890.00;2444642;80;25710;-80
2020/12/02 14:00:23;;;;;;;;;;;;;;;;;;;;;
2020/12/02 14:04:32;;;;;;;47.10;29.60;;;;;;;3.63;55.99;100894.45;2402968;80;25758;-79
2020/12/02 14:08:13;;;;;;;47.88;29.87;;;;;;;3.45;55.52;100886.52;2315373;84;26037;-79
2020/12/02 14:11:57;;;;;;;51.65;29.23;;;;;;;3.31;55.31;100884.00;2359274;83;25682;-81
2020/12/02 14:15:27;;;;;;;47.83;29.82;;;;;;;3.18;55.08;100875.03;2413026;81;25875;-80
2020/12/02 14:18:48;;;;;;;45.90;29.77;;;;;;;3.04;55.00;100874.19;2408663;81;25765;-78
2020/12/02 14:22:18;;;;;;;48.70;29.25;;;;;;;3.01;54.80;100870.54;2385454;82;25959;-78
2020/12/02 14:25:42;;;;;;;48.00;27.77;;;;;;;2.92;54.71;100863.52;2378041;82;25837;-80
2020/12/02 14:29:04;;;;;;;45.65;28.00;;;;;;;2.82;54.50;100859.48;2390773;82;26324;-79
2020/12/02 14:32:47;;;;;;;45.08;27.73;;;;;;;2.73;54.50;100849.48;2376061;82;25733;-85
2020/12/02 14:36:09;;;;;;;52.62;30.17;;;;;;;2.70;54.46;100846.76;2351247;81;25758;-81
2020/12/02 14:39:31;;;;;;;32.20;22.20;;;;;;;2.68;54.57;100858.62;2362346;83;25835;-79
2020/12/02 14:47:30;;;;;;;50.80;27.13;;;;;;;3.07;57.26;100850.28;2520150;77;25674;-79
2020/12/02 14:51:17;;;;;;;47.88;27.52;;;;;;;3.11;57.42;100851.39;2496991;77;25868;-80
2020/12/02 14:54:40;;;;;;;46.92;27.42;;;;;;;3.14;57.48;100847.31;2526234;77;25697;-80
2020/12/02 15:02:52;;;;;;;40.63;26.10;;;;;;;3.18;57.54;100833.81;2526144;77;26201;-80
2020/12/02 15:17:27;;;;;;;47.90;32.90;;;;;;;3.29;57.45;100830.58;2406686;80;28096;-79
2020/12/02 15:21:03;;;;;;;45.30;27.00;;;;;;;3.41;57.30;100836.48;2342669;82;26135;-80
2020/12/02 15:24:36;;;;;;;48.50;27.33;;;;;;;3.50;57.25;100825.40;2558288;76;26297;-79
2020/12/02 15:28:23;;;;;;;38.80;25.05;;;;;;;3.44;57.19;100821.56;2531299;76;25657;-80
2020/12/02 15:32:03;;;;;;;41.83;25.10;;;;;;;3.45;57.15;100836.26;2477528;78;25887;-81
2020/12/02 15:35:39;;;;;;;37.00;24.40;;;;;;;3.45;57.13;100831.10;2493215;78;25897;-81
2020/12/02 15:39:32;;;;;;;36.17;23.77;;;;;;;3.45;57.10;100832.39;2490298;78;25710;-79
2020/12/02 15:43:54;;;;;;;37.40;23.50;;;;;;;3.46;57.10;100819.98;2485367;78;25683;-80
2020/12/02 15:47:40;;;;;;;39.92;23.20;;;;;;;3.47;57.07;100820.47;2495591;78;26078;-80
2020/12/02 15:51:19;;;;;;;35.25;22.17;;;;;;;3.50;57.06;100828.38;2494433;78;26005;-80
2020/12/02 15:55:42;;;;;;;33.65;21.77;;;;;;;3.50;57.02;100830.95;2497695;78;25592;-80
2020/12/02 15:59:55;;;;;;;30.27;20.05;;;;;;;3.51;57.01;100825.91;2503788;77;26088;-80
2020/12/02 16:03:29;;;;;;;28.67;19.73;;;;;;;3.51;56.97;100823.33;2428966;80;25683;-79
2020/12/02 16:07:47;;;;;;;27.30;18.35;;;;;;;3.52;56.95;100819.95;2428278;80;25980;-80
2020/12/02 16:12:03;;;;;;;;;;;;;;;;;;;;;
2020/12/02 16:20:33;;;;;;;27.30;17.07;;;;;;;3.54;56.83;100809.70;2433151;80;25715;-80
2020/12/02 16:23:59;;;;;;;24.07;17.62;;;;;;;3.55;56.80;100802.48;2418226;80;26048;-79
2020/12/02 16:27:58;;;;;;;26.00;16.23;;;;;;;3.55;56.76;100800.80;2345574;80;26107;-80
2020/12/02 16:31:47;;;;;;;25.37;17.60;;;;;;;3.57;56.72;100806.43;2419259;80;25759;-79
2020/12/02 16:34:58;;;;;;;23.47;16.40;;;;;;;3.57;56.65;100789.67;2351445;82;25730;-79
2020/12/02 16:38:25;;;;;;;22.60;15.23;;;;;;;3.57;56.64;100793.13;2378287;82;25987;-78
2020/12/02 16:42:42;;;;;;;21.57;14.38;;;;;;;3.58;56.61;100789.78;2387581;82;26209;-79
2020/12/02 16:46:48;;;;;;;22.93;14.58;;;;;;;3.58;56.60;100782.05;2371114;82;25761;-81
2020/12/02 16:55:35;;;;;;;24.18;15.13;;;;;;;3.60;56.56;100779.14;2379725;81;25639;-81
2020/12/02 16:59:00;;;;;;;20.57;13.83;;;;;;;3.60;56.50;100775.27;2234132;87;26318;-79
2020/12/02 17:03:13;;;;;;;19.73;13.95;;;;;;;3.60;56.51;100762.78;2249546;85;26423;-79
2020/12/02 17:07:15;;;;;;;16.93;12.50;;;;;;;3.67;56.40;100748.15;2552854;77;25718;-81
2020/12/02 17:10:39;;;;;;;17.42;13.43;;;;;;;3.51;55.58;100750.23;2517094;78;25606;-80
2020/12/02 17:14:30;;;;;;;17.73;13.22;;;;;;;3.33;55.26;100750.48;2512534;78;25703;-81
2020/12/02 17:18:00;;;;;;;17.23;12.58;;;;;;;3.19;55.09;100754.42;2514939;78;25643;-79
2020/12/02 17:21:47;;;;;;;20.85;13.43;;;;;;;3.03;54.96;100746.17;2516466;78;25687;-78
2020/12/02 17:25:24;;;;;;;19.75;12.63;;;;;;;2.93;54.99;100749.00;2515563;78;25704;-80
2020/12/02 17:29:10;;;;;;;18.70;12.58;;;;;;;2.80;54.98;100743.53;2515707;78;25631;-77
2020/12/02 17:33:04;;;;;;;18.77;12.85;;;;;;;2.72;54.98;100736.13;2511702;78;25634;-80
2020/12/02 17:36:56;;;;;;;23.87;12.45;;;;;;;2.62;55.05;100733.39;2516227;78;25836;-78
2020/12/02 17:40:50;;;;;;;20.68;13.20;;;;;;;2.55;55.08;100727.39;2515549;78;25767;-81
2020/12/02 17:44:40;;;;;;;19.27;13.00;;;;;;;2.49;55.13;100725.72;2504355;78;26164;-78
2020/12/02 17:48:25;;;;;;;20.90;13.20;;;;;;;2.41;55.21;100726.55;2506405;78;25643;-77
2020/12/02 17:52:12;;;;;;;20.65;12.65;;;;;;;2.38;55.35;100718.63;2477838;78;25824;-79
2020/12/02 17:55:57;;;;;;;20.57;13.25;;;;;;;2.34;55.40;100725.67;2421326;78;26331;-78
2020/12/02 18:00:24;;;;;;;20.05;13.48;;;;;;;2.35;55.49;100729.61;2454007;78;25714;-78
2020/12/02 18:09:46;;;;;;;18.98;12.60;;;;;;;2.51;55.62;100727.59;2387512;81;26385;-82
2020/12/02 18:13:55;;;;;;;16.37;10.72;;;;;;;2.60;55.68;100729.86;2347292;83;25998;-79
2020/12/02 18:18:21;;;;;;;18.87;12.28;;;;;;;2.68;55.72;100729.03;2343152;82;26220;-79
2020/12/02 18:22:34;;;;;;;17.92;12.35;;;;;;;2.74;55.78;100722.56;2338566;82;26333;-79
2020/12/02 18:26:19;;;;;;;20.08;12.15;;;;;;;2.80;55.82;100716.50;2400639;80;25985;-80